logo
Rechercher aéroport 
image banner adimage banner adimage banner ad
image banner ad

MRRF - Rio Frio

Situé à Pococi, Costa Rica

ICAO - MRRF, IATA - RFR

Données fournies par Airmate  

Information générale

Coordonnées: N10°19'30" W83°53'14"
Élévation : 361 feet MSL.
 
Voir autres Aéroports à Heredia

Données opérationnelles

Special qualification required
Heure actuelle UTC:
Heure actuelle locale:
Météo à : MRPV - Tobias Bolanos Intl ( 49 km )
METAR: MRPV 222300Z 14006KT CAVOK 25/18 A3002 NOSIG
TAF: TAF MRPV 222300Z 2300/2324 11008KT 9999 FEW030 BKN150 TX30/2318Z TN19/2310Z TEMPO 2303/2309 VRB02KT BECMG 2316/2318 29008KT TEMPO 2320/2324 RA BKN020TCU
Voir NOTAMs / SUP AIP / TFR affectant cet aéroport [VIEW]
Fréquences de communication: [VIEW]

Pistes:

Identifiant RWYQFULongueur (ft)Largeur (ft)SurfaceLDA (ft)
02262539UNK
20262539UNK

Coordonnées de l'aéroport

Adresse: Pococi Costa Rica

Vue satellite de MRRF